sensor_id;sensor_type;location;lat;lon;timestamp;P1;durP1;ratioP1;P2;durP2;ratioP2
51485;SDS011;37565;51.352;6.412;2023-04-24T15:03:29;10.43;;;2.33;;
51485;SDS011;37565;51.352;6.412;2023-04-24T15:05:57;3.90;;;2.15;;
51485;SDS011;37565;51.352;6.412;2023-04-24T15:08:25;7.35;;;2.15;;
51485;SDS011;37565;51.352;6.412;2023-04-24T15:10:53;10.27;;;1.83;;
51485;SDS011;37565;51.352;6.412;2023-04-24T15:13:21;2.55;;;1.75;;
51485;SDS011;37565;51.352;6.412;2023-04-24T15:15:49;3.83;;;1.50;;
51485;SDS011;37565;51.352;6.412;2023-04-24T15:18:17;2.45;;;1.60;;
51485;SDS011;37565;51.352;6.412;2023-04-24T15:20:46;7.47;;;1.80;;
51485;SDS011;37565;51.352;6.412;2023-04-24T15:23:14;5.82;;;1.63;;
51485;SDS011;37565;51.352;6.412;2023-04-24T15:25:42;3.90;;;1.40;;
51485;SDS011;37565;51.352;6.412;2023-04-24T15:28:11;3.35;;;1.67;;
51485;SDS011;37565;51.352;6.412;2023-04-24T15:30:39;3.03;;;1.25;;
51485;SDS011;37565;51.352;6.412;2023-04-24T15:33:07;3.33;;;1.60;;
51485;SDS011;37565;51.352;6.412;2023-04-24T15:35:35;5.60;;;1.80;;
51485;SDS011;37565;51.352;6.412;2023-04-24T15:38:05;7.28;;;1.40;;
51485;SDS011;37565;51.352;6.412;2023-04-24T15:40:33;4.18;;;1.45;;
51485;SDS011;37565;51.352;6.412;2023-04-24T15:43:01;5.35;;;1.50;;
51485;SDS011;37565;51.352;6.412;2023-04-24T15:45:28;7.28;;;1.65;;
51485;SDS011;37565;51.352;6.412;2023-04-24T15:47:56;11.90;;;1.48;;
51485;SDS011;37565;51.352;6.412;2023-04-24T15:50:25;2.63;;;1.00;;
51485;SDS011;37565;51.352;6.412;2023-04-24T15:52:54;3.28;;;1.25;;
51485;SDS011;37565;51.352;6.412;2023-04-24T15:55:23;3.83;;;1.05;;
51485;SDS011;37565;51.352;6.412;2023-04-24T15:57:51;6.30;;;1.13;;
51485;SDS011;37565;51.352;6.412;2023-04-24T16:00:19;2.88;;;1.27;;
51485;SDS011;37565;51.352;6.412;2023-04-24T16:02:48;3.03;;;0.85;;
51485;SDS011;37565;51.352;6.412;2023-04-24T16:05:17;1.48;;;1.10;;
51485;SDS011;37565;51.352;6.412;2023-04-24T16:07:47;5.63;;;0.93;;
51485;SDS011;37565;51.352;6.412;2023-04-24T16:10:16;4.60;;;1.02;;
51485;SDS011;37565;51.352;6.412;2023-04-24T16:12:45;4.35;;;1.17;;
51485;SDS011;37565;51.352;6.412;2023-04-24T16:15:13;1.02;;;0.73;;
51485;SDS011;37565;51.352;6.412;2023-04-24T16:17:41;1.90;;;1.00;;
51485;SDS011;37565;51.352;6.412;2023-04-24T16:20:10;6.82;;;1.00;;
51485;SDS011;37565;51.352;6.412;2023-04-24T16:22:38;10.25;;;0.95;;
51485;SDS011;37565;51.352;6.412;2023-04-24T16:25:07;10.15;;;1.10;;
51485;SDS011;37565;51.352;6.412;2023-04-24T16:27:36;15.98;;;1.27;;
51485;SDS011;37565;51.352;6.412;2023-04-24T16:30:06;19.98;;;1.70;;
51485;SDS011;37565;51.352;6.412;2023-04-24T16:32:35;9.52;;;0.98;;
51485;SDS011;37565;51.352;6.412;2023-04-24T16:35:03;14.43;;;1.17;;
51485;SDS011;37565;51.352;6.412;2023-04-24T16:37:31;5.70;;;0.80;;
51485;SDS011;37565;51.352;6.412;2023-04-24T16:39:59;2.15;;;1.20;;
51485;SDS011;37565;51.352;6.412;2023-04-24T16:42:29;4.50;;;1.30;;
51485;SDS011;37565;51.352;6.412;2023-04-24T16:44:57;5.63;;;1.42;;
51485;SDS011;37565;51.352;6.412;2023-04-24T16:47:27;3.03;;;0.90;;
51485;SDS011;37565;51.352;6.412;2023-04-24T16:49:55;2.75;;;0.50;;
51485;SDS011;37565;51.352;6.412;2023-04-24T16:52:23;6.28;;;0.93;;
51485;SDS011;37565;51.352;6.412;2023-04-24T16:54:51;6.97;;;0.75;;
51485;SDS011;37565;51.352;6.412;2023-04-24T16:57:19;1.67;;;0.60;;
51485;SDS011;37565;51.352;6.412;2023-04-24T16:59:46;5.80;;;0.73;;
51485;SDS011;37565;51.352;6.412;2023-04-24T17:02:14;2.38;;;0.85;;
51485;SDS011;37565;51.352;6.412;2023-04-24T17:04:44;1.67;;;0.75;;
51485;SDS011;37565;51.352;6.412;2023-04-24T17:07:13;1.25;;;0.50;;
51485;SDS011;37565;51.352;6.412;2023-04-24T17:09:42;3.80;;;0.60;;
51485;SDS011;37565;51.352;6.412;2023-04-24T17:12:10;3.90;;;0.70;;
51485;SDS011;37565;51.352;6.412;2023-04-24T17:14:38;2.13;;;0.52;;
51485;SDS011;37565;51.352;6.412;2023-04-24T17:17:06;2.47;;;0.80;;
51485;SDS011;37565;51.352;6.412;2023-04-24T17:19:34;1.85;;;0.50;;
51485;SDS011;37565;51.352;6.412;2023-04-24T17:22:03;6.35;;;0.73;;
51485;SDS011;37565;51.352;6.412;2023-04-24T17:24:31;2.03;;;0.60;;
51485;SDS011;37565;51.352;6.412;2023-04-24T17:26:59;3.50;;;0.60;;
51485;SDS011;37565;51.352;6.412;2023-04-24T17:29:39;5.63;;;0.63;;
51485;SDS011;37565;51.352;6.412;2023-04-24T17:32:08;2.40;;;0.57;;
51485;SDS011;37565;51.352;6.412;2023-04-24T17:34:36;2.03;;;0.65;;
51485;SDS011;37565;51.352;6.412;2023-04-24T17:37:05;2.05;;;0.50;;
51485;SDS011;37565;51.352;6.412;2023-04-24T17:39:33;1.08;;;0.60;;
51485;SDS011;37565;51.352;6.412;2023-04-24T17:42:01;0.77;;;0.50;;
51485;SDS011;37565;51.352;6.412;2023-04-24T17:44:31;1.00;;;0.60;;
51485;SDS011;37565;51.352;6.412;2023-04-24T17:46:59;2.25;;;0.60;;
51485;SDS011;37565;51.352;6.412;2023-04-24T17:49:27;0.50;;;0.50;;
51485;SDS011;37565;51.352;6.412;2023-04-24T17:51:55;0.63;;;0.52;;
51485;SDS011;37565;51.352;6.412;2023-04-24T17:54:24;0.80;;;0.40;;
51485;SDS011;37565;51.352;6.412;2023-04-24T17:56:52;2.55;;;0.68;;
51485;SDS011;37565;51.352;6.412;2023-04-24T17:59:20;1.02;;;0.50;;
51485;SDS011;37565;51.352;6.412;2023-04-24T18:01:49;1.02;;;0.45;;
51485;SDS011;37565;51.352;6.412;2023-04-24T18:04:18;0.30;;;0.30;;
51485;SDS011;37565;51.352;6.412;2023-04-24T18:06:46;0.65;;;0.40;;
51485;SDS011;37565;51.352;6.412;2023-04-24T18:09:14;3.20;;;0.80;;
51485;SDS011;37565;51.352;6.412;2023-04-24T18:11:45;0.68;;;0.40;;
51485;SDS011;37565;51.352;6.412;2023-04-24T18:14:14;0.65;;;0.30;;
51485;SDS011;37565;51.352;6.412;2023-04-24T18:16:42;2.72;;;0.47;;
51485;SDS011;37565;51.352;6.412;2023-04-24T18:19:10;0.40;;;0.40;;
51485;SDS011;37565;51.352;6.412;2023-04-24T18:21:38;0.60;;;0.38;;
51485;SDS011;37565;51.352;6.412;2023-04-24T18:24:06;1.00;;;0.40;;
51485;SDS011;37565;51.352;6.412;2023-04-24T18:26:34;1.42;;;0.45;;
51485;SDS011;37565;51.352;6.412;2023-04-24T18:29:04;1.30;;;0.47;;
51485;SDS011;37565;51.352;6.412;2023-04-24T18:31:32;0.55;;;0.40;;
51485;SDS011;37565;51.352;6.412;2023-04-24T18:34:00;6.50;;;0.60;;
51485;SDS011;37565;51.352;6.412;2023-04-24T18:36:28;2.15;;;0.60;;
51485;SDS011;37565;51.352;6.412;2023-04-24T18:38:56;3.80;;;0.52;;
51485;SDS011;37565;51.352;6.412;2023-04-24T18:41:23;1.20;;;0.57;;
51485;SDS011;37565;51.352;6.412;2023-04-24T18:43:51;1.30;;;0.40;;
51485;SDS011;37565;51.352;6.412;2023-04-24T18:46:24;1.95;;;0.65;;
51485;SDS011;37565;51.352;6.412;2023-04-24T18:48:52;0.40;;;0.40;;
51485;SDS011;37565;51.352;6.412;2023-04-24T18:51:20;0.82;;;0.65;;
51485;SDS011;37565;51.352;6.412;2023-04-24T18:53:48;1.48;;;0.80;;
51485;SDS011;37565;51.352;6.412;2023-04-24T18:56:16;0.73;;;0.50;;
51485;SDS011;37565;51.352;6.412;2023-04-24T18:58:44;0.90;;;0.70;;
51485;SDS011;37565;51.352;6.412;2023-04-24T19:01:12;1.02;;;0.60;;
51485;SDS011;37565;51.352;6.412;2023-04-24T19:03:42;3.60;;;0.68;;
51485;SDS011;37565;51.352;6.412;2023-04-24T19:06:11;3.45;;;1.60;;
51485;SDS011;37565;51.352;6.412;2023-04-24T19:08:39;1.85;;;1.50;;
51485;SDS011;37565;51.352;6.412;2023-04-24T19:11:08;6.20;;;3.33;;
51485;SDS011;37565;51.352;6.412;2023-04-24T19:13:36;8.73;;;3.28;;
51485;SDS011;37565;51.352;6.412;2023-04-24T19:16:04;6.30;;;4.50;;
51485;SDS011;37565;51.352;6.412;2023-04-24T19:18:32;6.85;;;5.15;;
51485;SDS011;37565;51.352;6.412;2023-04-24T19:21:01;11.30;;;6.70;;
51485;SDS011;37565;51.352;6.412;2023-04-24T19:23:29;11.05;;;7.70;;
51485;SDS011;37565;51.352;6.412;2023-04-24T19:26:01;13.73;;;8.18;;
51485;SDS011;37565;51.352;6.412;2023-04-24T19:28:29;13.82;;;8.63;;
51485;SDS011;37565;51.352;6.412;2023-04-24T19:30:57;16.88;;;11.60;;
51485;SDS011;37565;51.352;6.412;2023-04-24T19:33:25;15.85;;;11.43;;
51485;SDS011;37565;51.352;6.412;2023-04-24T19:35:53;17.13;;;12.32;;
51485;SDS011;37565;51.352;6.412;2023-04-24T19:38:23;17.67;;;12.32;;
51485;SDS011;37565;51.352;6.412;2023-04-24T19:40:51;18.15;;;12.45;;
51485;SDS011;37565;51.352;6.412;2023-04-24T19:43:19;17.85;;;13.25;;
51485;SDS011;37565;51.352;6.412;2023-04-24T19:45:46;19.55;;;14.48;;
51485;SDS011;37565;51.352;6.412;2023-04-24T19:48:16;18.80;;;14.95;;
51485;SDS011;37565;51.352;6.412;2023-04-24T19:50:44;18.40;;;14.52;;
51485;SDS011;37565;51.352;6.412;2023-04-24T19:53:12;20.65;;;15.25;;
51485;SDS011;37565;51.352;6.412;2023-04-24T19:55:41;25.65;;;16.45;;
51485;SDS011;37565;51.352;6.412;2023-04-24T19:58:09;24.13;;;15.13;;
51485;SDS011;37565;51.352;6.412;2023-04-24T20:00:36;22.98;;;14.15;;
51485;SDS011;37565;51.352;6.412;2023-04-24T20:03:06;22.10;;;15.70;;
51485;SDS011;37565;51.352;6.412;2023-04-24T20:05:43;22.13;;;15.23;;
51485;SDS011;37565;51.352;6.412;2023-04-24T20:08:11;21.67;;;16.00;;
51485;SDS011;37565;51.352;6.412;2023-04-24T20:10:40;36.90;;;16.60;;
51485;SDS011;37565;51.352;6.412;2023-04-24T20:13:10;28.65;;;18.65;;
51485;SDS011;37565;51.352;6.412;2023-04-24T20:15:38;30.02;;;17.83;;
51485;SDS011;37565;51.352;6.412;2023-04-24T20:18:06;29.75;;;18.55;;
51485;SDS011;37565;51.352;6.412;2023-04-24T20:20:34;33.80;;;22.00;;
51485;SDS011;37565;51.352;6.412;2023-04-24T20:23:03;31.63;;;21.30;;
51485;SDS011;37565;51.352;6.412;2023-04-24T20:25:31;31.88;;;21.23;;
51485;SDS011;37565;51.352;6.412;2023-04-24T20:28:02;31.10;;;20.58;;
51485;SDS011;37565;51.352;6.412;2023-04-24T20:30:30;34.72;;;22.95;;
51485;SDS011;37565;51.352;6.412;2023-04-24T20:32:58;34.30;;;22.13;;
51485;SDS011;37565;51.352;6.412;2023-04-24T20:35:26;34.78;;;23.80;;
51485;SDS011;37565;51.352;6.412;2023-04-24T20:37:54;45.38;;;26.83;;
51485;SDS011;37565;51.352;6.412;2023-04-24T20:40:22;39.70;;;26.95;;
51485;SDS011;37565;51.352;6.412;2023-04-24T20:42:50;41.38;;;27.30;;
51485;SDS011;37565;51.352;6.412;2023-04-24T20:45:19;42.20;;;26.70;;
51485;SDS011;37565;51.352;6.412;2023-04-24T20:47:49;35.25;;;25.15;;
51485;SDS011;37565;51.352;6.412;2023-04-24T20:50:17;42.85;;;26.90;;
51485;SDS011;37565;51.352;6.412;2023-04-24T20:52:45;42.13;;;26.25;;
51485;SDS011;37565;51.352;6.412;2023-04-24T20:55:13;44.63;;;27.80;;
51485;SDS011;37565;51.352;6.412;2023-04-24T20:57:42;40.33;;;26.48;;
51485;SDS011;37565;51.352;6.412;2023-04-24T21:00:10;41.13;;;28.17;;
51485;SDS011;37565;51.352;6.412;2023-04-24T21:02:40;48.05;;;29.85;;
51485;SDS011;37565;51.352;6.412;2023-04-24T21:05:08;45.95;;;29.10;;
51485;SDS011;37565;51.352;6.412;2023-04-24T21:07:36;46.08;;;28.38;;
51485;SDS011;37565;51.352;6.412;2023-04-24T21:10:05;47.80;;;29.20;;
51485;SDS011;37565;51.352;6.412;2023-04-24T21:12:34;45.38;;;29.98;;
51485;SDS011;37565;51.352;6.412;2023-04-24T21:15:01;52.83;;;30.90;;
51485;SDS011;37565;51.352;6.412;2023-04-24T21:17:30;48.75;;;30.23;;
51485;SDS011;37565;51.352;6.412;2023-04-24T21:20:00;45.28;;;28.45;;
51485;SDS011;37565;51.352;6.412;2023-04-24T21:22:28;50.22;;;29.25;;
51485;SDS011;37565;51.352;6.412;2023-04-24T21:24:56;48.58;;;32.45;;
51485;SDS011;37565;51.352;6.412;2023-04-24T21:27:24;50.20;;;31.35;;
51485;SDS011;37565;51.352;6.412;2023-04-24T21:29:52;49.25;;;31.45;;
51485;SDS011;37565;51.352;6.412;2023-04-24T21:32:20;54.70;;;34.22;;
51485;SDS011;37565;51.352;6.412;2023-04-24T21:34:48;51.63;;;32.33;;
51485;SDS011;37565;51.352;6.412;2023-04-24T21:37:18;50.63;;;32.50;;
51485;SDS011;37565;51.352;6.412;2023-04-24T21:39:45;56.47;;;33.08;;
51485;SDS011;37565;51.352;6.412;2023-04-24T21:42:13;51.47;;;32.80;;
51485;SDS011;37565;51.352;6.412;2023-04-24T21:44:42;55.22;;;33.92;;
51485;SDS011;37565;51.352;6.412;2023-04-24T21:47:09;55.38;;;34.42;;
51485;SDS011;37565;51.352;6.412;2023-04-24T21:49:37;53.92;;;35.45;;
51485;SDS011;37565;51.352;6.412;2023-04-24T21:52:05;54.38;;;34.70;;
51485;SDS011;37565;51.352;6.412;2023-04-24T21:54:35;49.92;;;32.00;;
51485;SDS011;37565;51.352;6.412;2023-04-24T21:57:03;52.88;;;33.03;;
51485;SDS011;37565;51.352;6.412;2023-04-24T21:59:31;55.13;;;33.65;;
51485;SDS011;37565;51.352;6.412;2023-04-24T22:02:00;50.50;;;33.08;;
51485;SDS011;37565;51.352;6.412;2023-04-24T22:04:28;49.50;;;31.83;;
51485;SDS011;37565;51.352;6.412;2023-04-24T22:06:57;52.50;;;32.13;;
51485;SDS011;37565;51.352;6.412;2023-04-24T22:09:25;51.08;;;32.65;;
51485;SDS011;37565;51.352;6.412;2023-04-24T22:11:54;47.15;;;30.58;;
51485;SDS011;37565;51.352;6.412;2023-04-24T22:14:22;50.65;;;31.88;;
51485;SDS011;37565;51.352;6.412;2023-04-24T22:16:50;55.42;;;33.08;;
